createdAt,value
2023-12-09T00:01:26.479Z,98640.66
2023-12-09T00:06:28.256Z,98645.00
2023-12-09T00:11:30.415Z,98642.44
2023-12-09T00:16:32.351Z,98646.75
2023-12-09T00:21:34.220Z,98656.47
2023-12-09T00:26:35.940Z,98650.28
2023-12-09T00:31:37.753Z,98651.13
2023-12-09T00:36:39.822Z,98647.53
2023-12-09T00:41:41.617Z,98654.56
2023-12-09T00:46:43.390Z,98652.25
2023-12-09T00:51:45.316Z,98645.91
2023-12-09T00:56:47.136Z,98648.44
2023-12-09T01:01:48.901Z,98642.34
2023-12-09T01:06:50.744Z,98644.03
2023-12-09T01:11:54.643Z,98647.47
2023-12-09T01:16:56.857Z,98651.00
2023-12-09T01:21:58.666Z,98644.06
2023-12-09T01:27:00.401Z,98636.47
2023-12-09T01:32:02.326Z,98638.00
2023-12-09T01:37:04.158Z,98634.47
2023-12-09T01:42:05.894Z,98633.63
2023-12-09T01:47:08.348Z,98639.59
2023-12-09T01:52:10.151Z,98636.13
2023-12-09T01:57:12.108Z,98631.00
2023-12-09T02:02:13.932Z,98622.28
2023-12-09T02:07:15.749Z,98627.47
2023-12-09T02:12:32.560Z,98632.69
2023-12-09T02:17:41.524Z,98615.34
2023-12-09T02:22:43.282Z,98612.78
2023-12-09T02:27:54.490Z,98611.84
2023-12-09T02:32:58.073Z,98607.47
2023-12-09T02:38:02.598Z,98604.97
2023-12-09T02:43:06.074Z,98606.78
2023-12-09T02:48:08.190Z,98599.00
2023-12-09T02:53:10.211Z,98598.03
2023-12-09T02:58:13.382Z,98608.53
2023-12-09T03:03:15.563Z,98611.16
2023-12-09T03:08:17.362Z,98616.41
2023-12-09T03:13:20.760Z,98603.31
2023-12-09T03:18:22.675Z,98614.59
2023-12-09T03:23:24.688Z,98613.97
2023-12-09T03:28:26.601Z,98619.69
2023-12-09T03:33:28.643Z,98621.44
2023-12-09T03:38:30.838Z,98622.53
2023-12-09T03:43:33.388Z,98633.78
2023-12-09T03:48:35.316Z,98628.44
2023-12-09T03:53:37.721Z,98622.44
2023-12-09T03:58:39.562Z,98632.00
2023-12-09T04:03:41.451Z,98648.56
2023-12-09T04:08:43.532Z,98657.22
2023-12-09T04:13:45.486Z,98645.81
2023-12-09T04:18:48.587Z,98649.31
2023-12-09T04:23:50.537Z,98652.78
2023-12-09T04:28:52.294Z,98657.16
2023-12-09T04:33:54.063Z,98664.22
2023-12-09T04:38:56.113Z,98661.53
2023-12-09T04:43:57.836Z,98677.19
2023-12-09T04:48:59.763Z,98669.38
2023-12-09T04:54:01.517Z,98672.78
2023-12-09T04:59:04.183Z,98672.81
2023-12-09T05:04:06.184Z,98664.16
2023-12-09T05:09:09.575Z,98678.91
2023-12-09T05:14:11.459Z,98673.56
2023-12-09T05:19:13.274Z,98689.44
2023-12-09T05:24:15.265Z,98692.88
2023-12-09T05:29:17.075Z,98690.13
2023-12-09T05:34:19.185Z,98699.72
2023-12-09T05:39:21.672Z,98704.00
2023-12-09T05:44:23.670Z,98706.63
2023-12-09T05:49:26.488Z,98709.16
2023-12-09T05:54:28.231Z,98706.53
2023-12-09T05:59:30.149Z,98710.91
2023-12-09T06:04:32.054Z,98705.00
2023-12-09T06:09:33.981Z,98706.19
2023-12-09T06:14:36.978Z,98705.00
2023-12-09T06:19:39.316Z,98715.41
2023-12-09T06:24:41.175Z,98700.59
2023-12-09T06:29:45.769Z,98704.91
2023-12-09T06:34:47.623Z,98704.00
2023-12-09T06:39:49.522Z,98696.97
2023-12-09T06:44:51.498Z,98702.25
2023-12-09T06:49:53.437Z,98714.44
2023-12-09T06:54:55.675Z,98707.38
2023-12-09T06:59:57.692Z,98711.81
2023-12-09T07:04:59.522Z,98722.16
2023-12-09T07:10:01.429Z,98710.91
2023-12-09T07:15:06.707Z,98711.69
2023-12-09T07:20:08.815Z,98703.88
2023-12-09T07:25:12.977Z,98715.13
2023-12-09T07:30:15.226Z,98706.38
2023-12-09T07:35:18.324Z,98712.50
2023-12-09T07:40:20.355Z,98703.84
2023-12-09T07:45:22.215Z,98710.81
2023-12-09T07:50:24.377Z,98708.13
2023-12-09T07:55:26.213Z,98707.69
2023-12-09T08:00:28.694Z,98698.91
2023-12-09T08:05:30.836Z,98714.19
2023-12-09T08:10:32.714Z,98715.03
2023-12-09T08:15:34.881Z,98704.53
2023-12-09T08:20:37.825Z,98699.22
2023-12-09T08:25:40.081Z,98698.31
2023-12-09T08:30:41.890Z,98697.56
2023-12-09T08:35:43.652Z,98681.91
2023-12-09T08:40:45.541Z,98700.94
2023-12-09T08:45:47.379Z,98701.66
2023-12-09T08:50:49.349Z,98702.53
2023-12-09T08:55:51.120Z,98717.75
2023-12-09T09:00:53.639Z,98721.78
2023-12-09T09:05:56.049Z,98723.84
2023-12-09T09:10:58.236Z,98733.63
2023-12-09T09:16:00.314Z,98725.78
2023-12-09T09:21:02.205Z,98724.03
2023-12-09T09:26:06.251Z,98718.69
2023-12-09T09:31:08.198Z,98705.66
2023-12-09T09:36:10.705Z,98711.34
2023-12-09T09:41:37.362Z,98693.34
2023-12-09T09:46:40.305Z,98696.25
2023-12-09T09:51:46.132Z,98693.63
2023-12-09T09:56:50.437Z,98682.44
2023-12-09T10:01:52.889Z,98691.13
2023-12-09T10:06:57.286Z,98685.72
2023-12-09T10:11:59.314Z,98669.25
2023-12-09T10:17:01.517Z,98664.13
2023-12-09T10:22:03.383Z,98667.41
2023-12-09T10:27:05.805Z,98645.72
2023-12-09T10:32:07.856Z,98636.78
2023-12-09T10:37:09.902Z,98614.69
2023-12-09T10:42:12.379Z,98610.63
2023-12-09T10:47:14.562Z,98606.78
2023-12-09T10:52:16.452Z,98594.78
2023-12-09T10:57:20.054Z,98596.44
2023-12-09T11:02:22.700Z,98598.50
2023-12-09T11:07:26.210Z,98584.78
2023-12-09T11:12:31.266Z,98593.81
2023-12-09T11:17:38.664Z,98593.03
2023-12-09T11:22:42.441Z,98594.78
2023-12-09T11:27:44.495Z,98588.03
2023-12-09T11:32:46.757Z,98585.50
2023-12-09T11:37:50.494Z,98578.44
2023-12-09T11:42:53.304Z,98577.47
2023-12-09T11:47:58.210Z,98566.19
2023-12-09T11:53:00.309Z,98568.47
2023-12-09T11:58:02.366Z,98535.00
2023-12-09T12:03:04.826Z,98536.38
2023-12-09T12:08:06.872Z,98534.66
2023-12-09T12:13:09.294Z,98535.72
2023-12-09T12:18:11.249Z,98529.25
2023-12-09T12:23:19.947Z,98530.19
2023-12-09T12:28:28.580Z,98518.25
2023-12-09T12:33:32.547Z,98526.88
2023-12-09T12:38:34.909Z,98530.47
2023-12-09T12:43:36.986Z,98527.66
2023-12-09T12:48:39.397Z,98530.66
2023-12-09T12:53:41.428Z,98520.66
2023-12-09T12:58:43.278Z,98512.16
2023-12-09T13:03:45.331Z,98508.47
2023-12-09T13:08:47.278Z,98486.78
2023-12-09T13:13:49.251Z,98499.44
2023-12-09T13:18:51.386Z,98504.31
2023-12-09T13:23:53.417Z,98492.53
2023-12-09T13:28:55.439Z,98493.56
2023-12-09T13:33:57.459Z,98493.06
2023-12-09T13:38:59.361Z,98487.63
2023-12-09T13:44:02.241Z,98483.22
2023-12-09T13:49:04.188Z,98472.06
2023-12-09T13:54:06.119Z,98472.22
2023-12-09T13:59:08.010Z,98475.59
2023-12-09T14:04:10.514Z,98465.84
2023-12-09T14:09:13.761Z,98457.53
2023-12-09T14:14:15.810Z,98451.38
2023-12-09T14:19:18.702Z,98459.66
2023-12-09T14:24:22.388Z,98473.81
2023-12-09T14:29:24.247Z,98479.94
2023-12-09T14:34:27.233Z,98469.66
2023-12-09T14:39:29.988Z,98462.94
2023-12-09T14:44:33.006Z,98455.78
2023-12-09T14:49:35.142Z,98454.22
2023-12-09T14:54:37.042Z,98446.47
2023-12-09T14:59:39.834Z,98447.78
2023-12-09T15:04:41.549Z,98447.94
2023-12-09T15:09:43.692Z,98448.00
2023-12-09T15:14:46.003Z,98439.25
2023-12-09T15:19:48.474Z,98434.22
2023-12-09T15:24:50.514Z,98437.06
2023-12-09T15:29:52.408Z,98425.16
2023-12-09T15:34:54.395Z,98420.94
2023-12-09T15:39:56.299Z,98427.22
2023-12-09T15:44:58.278Z,98418.66
2023-12-09T15:50:00.501Z,98416.03
2023-12-09T15:55:02.257Z,98429.84
2023-12-09T16:00:05.356Z,98421.84
2023-12-09T16:05:07.608Z,98413.84
2023-12-09T16:10:10.125Z,98404.53
2023-12-09T16:15:12.935Z,98392.22
2023-12-09T16:20:15.845Z,98382.66
2023-12-09T16:25:17.835Z,98383.78
2023-12-09T16:30:19.743Z,98390.34
2023-12-09T16:35:21.719Z,98395.16
2023-12-09T16:40:24.988Z,98384.03
2023-12-09T16:45:27.073Z,98369.38
2023-12-09T16:50:29.429Z,98382.13
2023-12-09T16:55:31.252Z,98386.31
2023-12-09T17:00:35.605Z,98400.78
2023-12-09T17:05:37.729Z,98380.56
2023-12-09T17:10:39.765Z,98377.81
2023-12-09T17:15:41.784Z,98373.00
2023-12-09T17:20:43.752Z,98377.41
2023-12-09T17:25:45.544Z,98358.34
2023-12-09T17:30:48.979Z,98338.78
2023-12-09T17:35:50.814Z,98342.88
2023-12-09T17:40:52.600Z,98303.56
2023-12-09T17:45:55.734Z,98289.72
2023-12-09T17:50:57.783Z,98285.47
2023-12-09T17:55:59.634Z,98274.44
2023-12-09T18:01:01.767Z,98256.97
2023-12-09T18:06:04.819Z,98248.81
2023-12-09T18:11:07.010Z,98227.94
2023-12-09T18:16:11.594Z,98223.19
2023-12-09T18:21:13.334Z,98220.97
2023-12-09T18:26:15.498Z,98214.97
2023-12-09T18:31:17.689Z,98221.81
2023-12-09T18:36:19.552Z,98199.94
2023-12-09T18:41:21.382Z,98177.97
2023-12-09T18:46:25.442Z,98180.31
2023-12-09T18:51:27.236Z,98168.88
2023-12-09T18:56:29.133Z,98162.72
2023-12-09T19:01:31.745Z,98159.94
2023-12-09T19:06:42.228Z,98163.38
2023-12-09T19:11:51.355Z,98171.28
2023-12-09T19:16:55.243Z,98160.31
2023-12-09T19:21:57.076Z,98162.94
2023-12-09T19:26:59.450Z,98167.38
2023-12-09T19:32:01.469Z,98143.75
2023-12-09T19:37:04.215Z,98133.69
2023-12-09T19:42:06.492Z,98117.44
2023-12-09T19:47:08.353Z,98103.50
2023-12-09T19:52:10.156Z,98108.59
2023-12-09T19:57:12.010Z,98076.63
2023-12-09T20:02:14.777Z,98053.00
2023-12-09T20:07:17.415Z,98052.75
2023-12-09T20:12:20.117Z,98035.44
2023-12-09T20:17:22.205Z,98030.22
2023-12-09T20:22:24.081Z,98013.69
2023-12-09T20:27:25.834Z,98010.91
2023-12-09T20:32:28.074Z,98003.97
2023-12-09T20:37:30.209Z,97999.69
2023-12-09T20:42:32.517Z,97980.63
2023-12-09T20:47:35.569Z,97988.09
2023-12-09T20:52:39.030Z,98015.75
2023-12-09T20:57:42.127Z,98000.25
2023-12-09T21:02:44.441Z,97983.97
2023-12-09T21:07:46.553Z,97963.47
2023-12-09T21:12:48.864Z,97958.94
2023-12-09T21:17:50.660Z,97934.44
2023-12-09T21:22:52.602Z,97930.44
2023-12-09T21:27:54.438Z,97939.09
2023-12-09T21:32:56.531Z,97927.63
2023-12-09T21:37:58.332Z,97918.13
2023-12-09T21:43:00.388Z,97914.97
2023-12-09T21:48:04.985Z,97899.00
2023-12-09T21:53:08.898Z,97907.72
2023-12-09T21:58:11.506Z,97890.97
2023-12-09T22:03:13.419Z,97869.56
2023-12-09T22:08:15.327Z,97834.38
2023-12-09T22:13:16.980Z,97814.94
2023-12-09T22:18:19.862Z,97789.56
2023-12-09T22:23:21.713Z,97805.00
2023-12-09T22:28:23.466Z,97804.88
2023-12-09T22:33:26.176Z,97796.66
2023-12-09T22:38:28.354Z,97788.03
2023-12-09T22:43:30.287Z,97775.81
2023-12-09T22:48:32.195Z,97756.63
2023-12-09T22:53:34.708Z,97749.41
2023-12-09T22:58:36.811Z,97765.25
2023-12-09T23:03:38.634Z,97775.78
2023-12-09T23:08:40.836Z,97769.06
2023-12-09T23:13:43.961Z,97743.69
2023-12-09T23:18:46.151Z,97741.38
2023-12-09T23:23:48.211Z,97750.28
2023-12-09T23:28:50.150Z,97738.81
2023-12-09T23:33:51.995Z,97734.78
2023-12-09T23:38:54.231Z,97727.69
2023-12-09T23:43:55.995Z,97726.88
2023-12-09T23:48:58.073Z,97711.94
2023-12-09T23:53:59.821Z,97699.00
2023-12-09T23:59:01.771Z,97698.69
